createdAt,value
2023-03-30T00:01:44.681Z,13.24
2023-03-30T00:04:18.896Z,12.76
2023-03-30T00:06:48.695Z,13.21
2023-03-30T00:09:18.466Z,12.65
2023-03-30T00:11:48.299Z,12.76
2023-03-30T00:14:19.897Z,12.80
2023-03-30T00:16:49.616Z,12.84
2023-03-30T00:19:21.912Z,13.04
2023-03-30T00:21:52.370Z,13.10
2023-03-30T00:24:22.056Z,12.66
2023-03-30T00:26:51.747Z,11.95
2023-03-30T00:29:21.446Z,12.66
2023-03-30T00:31:52.182Z,12.61
2023-03-30T00:34:27.653Z,12.23
2023-03-30T00:36:57.726Z,12.54
2023-03-30T00:39:27.529Z,12.66
2023-03-30T00:41:57.214Z,13.12
2023-03-30T00:44:57.099Z,12.99
2023-03-30T00:47:28.189Z,12.12
2023-03-30T00:50:01.315Z,11.15
2023-03-30T00:52:31.277Z,11.96
2023-03-30T00:55:02.046Z,11.55
2023-03-30T00:57:32.505Z,12.29
2023-03-30T01:00:02.352Z,12.24
2023-03-30T01:02:34.641Z,12.28
2023-03-30T01:05:08.829Z,12.85
2023-03-30T01:07:40.362Z,11.55
2023-03-30T01:10:13.069Z,12.00
2023-03-30T01:12:43.750Z,12.06
2023-03-30T01:15:16.329Z,12.32
2023-03-30T01:17:59.910Z,11.90
2023-03-30T01:20:54.244Z,11.82
2023-03-30T01:24:04.126Z,11.90
2023-03-30T01:26:53.566Z,12.72
2023-03-30T01:29:52.882Z,12.30
2023-03-30T01:32:43.375Z,13.42
2023-03-30T01:35:29.731Z,13.26
2023-03-30T01:38:20.000Z,13.47
2023-03-30T01:40:58.951Z,13.35
2023-03-30T01:43:37.945Z,13.80
2023-03-30T01:46:12.265Z,13.07
2023-03-30T01:48:47.432Z,13.23
2023-03-30T01:51:23.103Z,13.40
2023-03-30T01:53:59.163Z,13.67
2023-03-30T01:56:36.591Z,13.69
2023-03-30T01:59:12.333Z,13.55
2023-03-30T02:01:50.420Z,12.44
2023-03-30T02:04:24.684Z,13.27
2023-03-30T02:06:58.840Z,12.38
2023-03-30T02:09:30.743Z,12.52
2023-03-30T02:12:05.052Z,12.97
2023-03-30T02:14:40.663Z,12.44
2023-03-30T02:17:17.318Z,12.83
2023-03-30T02:19:48.981Z,11.69
2023-03-30T02:22:21.940Z,12.20
2023-03-30T02:24:56.140Z,11.25
2023-03-30T02:27:30.176Z,10.99
2023-03-30T02:30:00.268Z,12.13
2023-03-30T02:32:34.988Z,11.70
2023-03-30T02:35:29.436Z,11.69
2023-03-30T02:38:28.379Z,11.53
2023-03-30T02:41:07.305Z,11.04
2023-03-30T02:43:47.465Z,11.29
2023-03-30T02:46:34.097Z,11.73
2023-03-30T02:49:15.973Z,11.93
2023-03-30T02:51:53.831Z,12.01
2023-03-30T02:54:40.232Z,12.46
2023-03-30T02:57:36.952Z,12.43
2023-03-30T03:00:33.698Z,13.08
2023-03-30T03:03:10.240Z,12.84
2023-03-30T03:05:40.187Z,12.25
2023-03-30T03:08:17.298Z,12.65
2023-03-30T03:10:48.767Z,12.62
2023-03-30T03:13:22.198Z,12.51
2023-03-30T03:15:56.408Z,12.70
2023-03-30T03:18:27.649Z,12.69
2023-03-30T03:20:57.896Z,12.47
2023-03-30T03:23:27.817Z,12.58
2023-03-30T03:26:00.452Z,12.35
2023-03-30T03:28:31.898Z,12.50
2023-03-30T03:31:10.700Z,12.96
2023-03-30T03:33:40.602Z,13.13
2023-03-30T03:36:17.512Z,12.81
2023-03-30T03:38:52.397Z,12.91
2023-03-30T03:41:22.304Z,12.48
2023-03-30T03:43:52.078Z,12.58
2023-03-30T03:46:25.043Z,12.53
2023-03-30T03:48:55.029Z,11.71
2023-03-30T03:51:24.839Z,12.30
2023-03-30T03:53:54.580Z,12.35
2023-03-30T03:56:25.403Z,12.02
2023-03-30T03:58:55.595Z,12.00
2023-03-30T04:01:29.978Z,11.89
2023-03-30T04:03:59.714Z,11.88
2023-03-30T04:06:29.929Z,12.02
2023-03-30T04:09:01.270Z,12.22
2023-03-30T04:11:53.710Z,12.65
2023-03-30T04:14:34.959Z,12.57
2023-03-30T04:17:26.387Z,12.63
2023-03-30T04:20:12.469Z,13.23
2023-03-30T04:23:22.176Z,13.11
2023-03-30T04:26:13.819Z,13.13
2023-03-30T04:29:05.126Z,13.07
2023-03-30T04:32:03.872Z,13.82
2023-03-30T04:35:05.855Z,13.18
2023-03-30T04:37:54.283Z,13.39
2023-03-30T04:40:44.296Z,13.52
2023-03-30T04:43:32.298Z,13.50
2023-03-30T04:46:24.683Z,13.25
2023-03-30T04:49:10.985Z,13.20
2023-03-30T04:52:08.879Z,13.43
2023-03-30T04:55:10.127Z,13.15
2023-03-30T04:58:04.609Z,13.44
2023-03-30T05:00:44.471Z,13.23
2023-03-30T05:03:40.608Z,13.10
2023-03-30T05:06:45.869Z,12.70
2023-03-30T05:09:30.102Z,12.73
2023-03-30T05:12:38.329Z,12.89
2023-03-30T05:15:34.691Z,12.64
2023-03-30T05:18:22.883Z,12.85
2023-03-30T05:21:11.272Z,12.78
2023-03-30T05:23:43.057Z,13.07
2023-03-30T05:26:32.074Z,13.13
2023-03-30T05:29:07.946Z,13.29
2023-03-30T05:31:56.433Z,13.22
2023-03-30T05:34:45.369Z,13.16
2023-03-30T05:37:35.526Z,13.22
2023-03-30T05:40:23.763Z,13.20
2023-03-30T05:43:11.320Z,13.30
2023-03-30T05:45:55.093Z,13.04
2023-03-30T05:48:51.452Z,13.13
2023-03-30T05:51:28.144Z,13.02
2023-03-30T05:54:23.474Z,13.24
2023-03-30T05:57:02.389Z,13.57
2023-03-30T05:59:43.122Z,13.75
2023-03-30T06:02:24.803Z,13.75
2023-03-30T06:05:01.765Z,14.03
2023-03-30T06:07:32.124Z,14.42
2023-03-30T06:10:02.109Z,14.20
2023-03-30T06:12:33.649Z,14.69
2023-03-30T06:15:09.267Z,14.72
2023-03-30T06:17:52.958Z,14.80
2023-03-30T06:20:24.734Z,15.55
2023-03-30T06:22:54.894Z,15.92
2023-03-30T06:25:27.074Z,15.83
2023-03-30T06:27:58.058Z,14.65
2023-03-30T06:30:31.332Z,14.92
2023-03-30T06:33:05.384Z,14.95
2023-03-30T06:35:49.335Z,14.87
2023-03-30T06:38:22.484Z,14.65
2023-03-30T06:40:54.234Z,14.56
2023-03-30T06:43:28.116Z,14.80
2023-03-30T06:46:07.367Z,15.78
2023-03-30T06:48:37.294Z,15.64
2023-03-30T06:51:27.679Z,15.17
2023-03-30T06:53:59.900Z,15.46
2023-03-30T06:56:29.989Z,16.07
2023-03-30T06:59:12.560Z,16.04
2023-03-30T07:02:04.904Z,16.20
2023-03-30T07:05:11.992Z,16.39
2023-03-30T07:07:59.824Z,16.41
2023-03-30T07:10:30.498Z,16.60
2023-03-30T07:13:02.805Z,17.34
2023-03-30T07:15:34.037Z,17.28
2023-03-30T07:18:07.448Z,17.39
2023-03-30T07:20:37.659Z,17.35
2023-03-30T07:23:12.652Z,17.37
2023-03-30T07:25:43.040Z,17.10
2023-03-30T07:28:17.107Z,16.88
2023-03-30T07:30:48.464Z,16.77
2023-03-30T07:33:22.175Z,16.76
2023-03-30T07:35:53.186Z,16.75
2023-03-30T07:38:27.278Z,16.62
2023-03-30T07:40:58.188Z,16.57
2023-03-30T07:43:28.630Z,16.58
2023-03-30T07:45:59.839Z,16.52
2023-03-30T07:48:38.470Z,16.50
2023-03-30T07:51:09.789Z,16.89
2023-03-30T07:53:46.044Z,16.92
2023-03-30T07:56:23.575Z,17.25
2023-03-30T07:58:57.140Z,17.68
2023-03-30T08:01:34.174Z,16.45
2023-03-30T08:04:28.100Z,16.10
2023-03-30T08:06:57.918Z,15.74
2023-03-30T08:09:28.550Z,15.87
2023-03-30T08:11:58.269Z,16.15
2023-03-30T08:14:28.840Z,16.05
2023-03-30T08:16:59.189Z,15.94
2023-03-30T08:19:31.544Z,16.02
2023-03-30T08:22:01.918Z,15.75
2023-03-30T08:24:32.152Z,15.78
2023-03-30T08:27:01.941Z,15.76
2023-03-30T08:29:31.828Z,15.64
2023-03-30T08:32:01.843Z,15.57
2023-03-30T08:34:36.079Z,15.48
2023-03-30T08:37:07.843Z,15.46
2023-03-30T08:39:37.828Z,15.39
2023-03-30T08:42:26.166Z,15.41
2023-03-30T08:44:58.236Z,15.52
2023-03-30T08:47:35.272Z,15.61
2023-03-30T08:50:11.574Z,15.99
2023-03-30T08:52:42.268Z,16.02
2023-03-30T08:55:24.493Z,15.76
2023-03-30T08:57:58.844Z,15.61
2023-03-30T09:00:39.846Z,15.67
2023-03-30T09:03:18.639Z,15.61
2023-03-30T09:05:55.622Z,15.66
2023-03-30T09:08:29.300Z,15.70
2023-03-30T09:11:02.460Z,15.73
2023-03-30T09:13:37.995Z,15.75
2023-03-30T09:16:19.681Z,15.87
2023-03-30T09:18:55.428Z,15.73
2023-03-30T09:21:32.313Z,15.70
2023-03-30T09:24:04.738Z,15.63
2023-03-30T09:26:44.360Z,15.82
2023-03-30T09:29:20.720Z,15.97
2023-03-30T09:31:54.597Z,16.43
2023-03-30T09:34:30.072Z,16.56
2023-03-30T09:37:08.446Z,16.78
2023-03-30T09:39:39.363Z,17.02
2023-03-30T09:42:22.049Z,17.32
2023-03-30T09:44:55.490Z,16.86
2023-03-30T09:47:28.630Z,17.23
2023-03-30T09:50:00.522Z,16.89
2023-03-30T09:52:39.105Z,16.81
2023-03-30T09:55:27.712Z,17.12
2023-03-30T09:58:12.322Z,17.29
2023-03-30T10:00:42.358Z,17.12
2023-03-30T10:03:22.975Z,16.81
2023-03-30T10:06:05.715Z,16.87
2023-03-30T10:08:43.336Z,16.96
2023-03-30T10:11:15.864Z,17.33
2023-03-30T10:13:46.710Z,17.45
2023-03-30T10:16:27.994Z,17.25
2023-03-30T10:19:02.625Z,17.61
2023-03-30T10:21:33.996Z,17.70
2023-03-30T10:24:10.392Z,17.99
2023-03-30T10:26:44.978Z,17.91
2023-03-30T10:29:16.482Z,17.91
2023-03-30T10:31:48.520Z,17.62
2023-03-30T10:34:21.121Z,17.34
2023-03-30T10:36:56.162Z,17.56
2023-03-30T10:39:33.448Z,17.87
2023-03-30T10:42:05.129Z,18.29
2023-03-30T10:44:41.034Z,18.32
2023-03-30T10:47:20.085Z,18.47
2023-03-30T10:49:58.927Z,18.13
2023-03-30T10:52:43.099Z,17.47
2023-03-30T10:55:25.824Z,17.73
2023-03-30T10:58:03.550Z,18.00
2023-03-30T11:00:48.471Z,17.83
2023-03-30T11:03:23.655Z,17.98
2023-03-30T11:05:58.330Z,17.92
2023-03-30T11:08:32.453Z,18.03
2023-03-30T11:11:05.726Z,18.02
2023-03-30T11:13:38.487Z,18.16
2023-03-30T11:16:14.749Z,18.44
2023-03-30T11:18:50.076Z,18.66
2023-03-30T11:21:24.503Z,18.49
2023-03-30T11:23:56.914Z,18.22
2023-03-30T11:26:38.558Z,17.99
2023-03-30T11:29:30.356Z,18.31
2023-03-30T11:32:14.842Z,18.06
2023-03-30T11:34:56.445Z,17.94
2023-03-30T11:37:32.655Z,18.12
2023-03-30T11:40:11.441Z,17.92
2023-03-30T11:42:43.803Z,17.43
2023-03-30T11:45:27.072Z,17.55
2023-03-30T11:48:15.175Z,17.69
2023-03-30T11:51:01.273Z,17.49
2023-03-30T11:53:36.717Z,17.11
2023-03-30T11:56:10.208Z,17.00
2023-03-30T11:58:48.799Z,16.88
2023-03-30T12:01:36.589Z,16.69
2023-03-30T12:04:11.110Z,14.79
2023-03-30T12:06:43.502Z,12.72
2023-03-30T12:09:26.975Z,12.15
2023-03-30T12:12:04.119Z,11.95
2023-03-30T12:15:01.732Z,12.02
2023-03-30T12:17:44.106Z,12.06
2023-03-30T12:20:37.106Z,11.97
2023-03-30T12:23:19.849Z,12.04
2023-03-30T12:26:05.407Z,12.16
2023-03-30T12:31:26.551Z,12.44
2023-03-30T12:34:11.098Z,12.70
2023-03-30T12:36:43.245Z,12.81
2023-03-30T12:39:21.961Z,12.87
2023-03-30T12:41:55.906Z,13.03
2023-03-30T12:44:48.228Z,12.72
2023-03-30T12:47:35.897Z,12.90
2023-03-30T12:50:30.587Z,12.90
2023-03-30T12:53:16.406Z,12.96
2023-03-30T12:55:50.204Z,13.03
2023-03-30T12:58:43.770Z,13.07
2023-03-30T13:01:23.586Z,13.34
2023-03-30T13:03:57.966Z,13.39
2023-03-30T13:06:31.723Z,13.57
2023-03-30T13:09:28.097Z,13.76
2023-03-30T13:12:41.197Z,13.70
2023-03-30T13:15:36.476Z,13.79
2023-03-30T13:18:26.449Z,13.77
2023-03-30T13:21:27.531Z,13.67
2023-03-30T13:24:07.556Z,13.92
2023-03-30T13:26:46.603Z,14.00
2023-03-30T13:29:18.884Z,14.05
2023-03-30T13:32:14.992Z,13.92
2023-03-30T13:35:06.671Z,13.93
2023-03-30T13:38:01.600Z,14.06
2023-03-30T13:40:41.898Z,14.16
2023-03-30T13:43:23.096Z,14.25
2023-03-30T13:46:15.654Z,14.33
2023-03-30T13:48:59.818Z,14.37
2023-03-30T13:51:31.171Z,14.28
2023-03-30T13:54:06.584Z,14.41
2023-03-30T13:56:39.710Z,14.50
2023-03-30T13:59:13.841Z,14.37
2023-03-30T14:01:44.178Z,14.49
2023-03-30T14:04:16.544Z,14.97
2023-03-30T14:06:50.411Z,15.15
2023-03-30T14:09:27.779Z,15.10
2023-03-30T14:12:01.034Z,15.17
2023-03-30T14:14:37.559Z,15.55
2023-03-30T14:17:17.571Z,14.96
2023-03-30T14:20:04.987Z,15.13
2023-03-30T14:22:41.216Z,14.98
2023-03-30T14:25:25.865Z,14.87
2023-03-30T14:27:56.559Z,14.89
2023-03-30T14:30:29.679Z,14.96
2023-03-30T14:33:10.286Z,14.86
2023-03-30T14:35:44.772Z,14.79
2023-03-30T14:38:18.803Z,14.90
2023-03-30T14:40:52.060Z,15.01
2023-03-30T14:43:24.949Z,14.80
2023-03-30T14:45:56.813Z,14.80
2023-03-30T14:48:30.870Z,15.02
2023-03-30T14:51:10.512Z,15.10
2023-03-30T14:53:40.656Z,15.42
2023-03-30T14:56:13.808Z,15.40
2023-03-30T14:58:44.891Z,15.54
2023-03-30T15:01:19.373Z,15.54
2023-03-30T15:03:51.282Z,15.57
2023-03-30T15:06:25.615Z,15.34
2023-03-30T15:08:56.358Z,15.29
2023-03-30T15:11:31.411Z,15.55
2023-03-30T15:14:04.648Z,15.77
2023-03-30T15:16:36.531Z,15.85
2023-03-30T15:19:09.462Z,15.60
2023-03-30T15:21:40.182Z,15.47
2023-03-30T15:24:15.570Z,15.40
2023-03-30T15:26:50.648Z,15.18
2023-03-30T15:29:22.707Z,15.13
2023-03-30T15:32:02.264Z,14.94
2023-03-30T15:34:32.102Z,14.95
2023-03-30T15:37:02.297Z,14.51
2023-03-30T15:39:36.747Z,13.42
2023-03-30T15:42:10.100Z,12.63
2023-03-30T15:44:41.812Z,12.91
2023-03-30T15:47:17.499Z,13.14
2023-03-30T15:49:51.899Z,13.56
2023-03-30T15:52:28.017Z,13.33
2023-03-30T15:54:58.638Z,13.44
2023-03-30T15:57:33.650Z,13.10
2023-03-30T16:00:06.730Z,13.19
2023-03-30T16:02:42.390Z,13.30
2023-03-30T16:05:22.434Z,13.11
2023-03-30T16:07:52.430Z,13.10
2023-03-30T16:10:24.771Z,13.06
2023-03-30T16:12:59.060Z,12.88
2023-03-30T16:15:31.370Z,13.18
2023-03-30T16:18:01.422Z,13.04
2023-03-30T16:20:33.615Z,13.02
2023-03-30T16:23:04.604Z,13.02
2023-03-30T16:25:44.840Z,13.00
2023-03-30T16:28:21.299Z,12.88
2023-03-30T16:30:52.600Z,12.73
2023-03-30T16:33:22.765Z,12.70
2023-03-30T16:35:52.467Z,12.52
2023-03-30T16:38:22.300Z,12.42
2023-03-30T16:40:55.210Z,12.45
2023-03-30T16:43:27.889Z,12.47
2023-03-30T16:45:57.927Z,12.50
2023-03-30T16:48:27.948Z,12.55
2023-03-30T16:50:59.311Z,12.74
2023-03-30T16:53:29.266Z,12.72
2023-03-30T16:55:58.966Z,12.69
2023-03-30T16:58:31.429Z,12.48
2023-03-30T17:01:04.310Z,12.54
2023-03-30T17:03:34.558Z,12.55
2023-03-30T17:06:04.274Z,12.34
2023-03-30T17:08:33.992Z,12.38
2023-03-30T17:11:07.792Z,12.26
2023-03-30T17:13:40.290Z,12.24
2023-03-30T17:16:11.351Z,12.11
2023-03-30T17:18:41.188Z,12.10
2023-03-30T17:21:16.605Z,12.02
2023-03-30T17:23:48.116Z,11.94
2023-03-30T17:26:18.337Z,11.93
2023-03-30T17:28:52.354Z,11.83
2023-03-30T17:31:23.915Z,11.85
2023-03-30T17:33:53.669Z,11.94
2023-03-30T17:36:25.443Z,11.94
2023-03-30T17:38:55.598Z,11.94
2023-03-30T17:41:25.262Z,11.95
2023-03-30T17:43:57.523Z,11.95
2023-03-30T17:46:27.543Z,11.98
2023-03-30T17:48:58.952Z,12.00
2023-03-30T17:51:28.715Z,12.06
2023-03-30T17:53:58.420Z,11.95
2023-03-30T17:56:28.335Z,11.71
2023-03-30T17:59:00.660Z,11.79
2023-03-30T18:01:30.544Z,11.70
2023-03-30T18:04:00.375Z,11.52
2023-03-30T18:06:30.146Z,11.52
2023-03-30T18:08:59.892Z,11.94
2023-03-30T18:11:29.545Z,11.63
2023-03-30T18:14:02.255Z,11.46
2023-03-30T18:16:31.936Z,11.71
2023-03-30T18:19:02.456Z,11.33
2023-03-30T18:21:32.228Z,11.51
2023-03-30T18:24:03.614Z,11.40
2023-03-30T18:26:34.203Z,11.44
2023-03-30T18:29:06.678Z,11.68
2023-03-30T18:31:36.412Z,11.73
2023-03-30T18:34:06.242Z,11.68
2023-03-30T18:36:35.991Z,11.70
2023-03-30T18:39:05.801Z,11.62
2023-03-30T18:41:35.458Z,11.50
2023-03-30T18:44:09.130Z,11.57
2023-03-30T18:46:39.279Z,11.61
2023-03-30T18:49:12.441Z,11.50
2023-03-30T18:51:42.097Z,11.56
2023-03-30T18:54:11.837Z,11.54
2023-03-30T18:56:41.511Z,11.60
2023-03-30T18:59:14.791Z,11.72
2023-03-30T19:01:46.178Z,11.71
2023-03-30T19:04:16.129Z,11.76
2023-03-30T19:06:46.513Z,11.75
2023-03-30T19:09:16.602Z,11.67
2023-03-30T19:11:46.401Z,11.65
2023-03-30T19:14:18.682Z,11.73
2023-03-30T19:16:48.540Z,11.72
2023-03-30T19:19:18.372Z,11.70
2023-03-30T19:21:48.217Z,12.02
2023-03-30T19:24:18.158Z,11.89
2023-03-30T19:26:47.822Z,11.64
2023-03-30T19:29:20.042Z,11.65
2023-03-30T19:31:50.362Z,11.90
2023-03-30T19:34:20.199Z,11.95
2023-03-30T19:36:49.880Z,11.98
2023-03-30T19:39:19.623Z,12.01
2023-03-30T19:41:49.297Z,11.74
2023-03-30T19:44:22.258Z,11.80
2023-03-30T19:46:52.088Z,11.69
2023-03-30T19:49:21.800Z,11.64
2023-03-30T19:51:51.541Z,11.54
2023-03-30T19:54:21.308Z,11.45
2023-03-30T19:56:51.250Z,11.75
2023-03-30T19:59:23.606Z,11.60
2023-03-30T20:01:53.392Z,11.72
2023-03-30T20:04:23.289Z,12.03
2023-03-30T20:06:52.989Z,11.50
2023-03-30T20:09:22.880Z,11.74
2023-03-30T20:11:52.524Z,11.44
2023-03-30T20:14:24.931Z,11.60
2023-03-30T20:16:56.105Z,11.43
2023-03-30T20:19:29.631Z,11.47
2023-03-30T20:22:00.520Z,11.60
2023-03-30T20:24:30.179Z,11.57
2023-03-30T20:27:00.266Z,11.63
2023-03-30T20:29:32.925Z,11.66
2023-03-30T20:32:02.656Z,11.73
2023-03-30T20:34:33.736Z,11.66
2023-03-30T20:37:03.562Z,11.69
2023-03-30T20:39:34.370Z,11.71
2023-03-30T20:42:08.430Z,11.67
2023-03-30T20:44:41.232Z,11.61
2023-03-30T20:47:11.241Z,11.69
2023-03-30T20:49:43.811Z,11.79
2023-03-30T20:52:13.628Z,11.89
2023-03-30T20:54:44.572Z,12.00
2023-03-30T20:57:14.401Z,11.96
2023-03-30T20:59:48.167Z,11.99
2023-03-30T21:02:18.443Z,11.91
2023-03-30T21:04:48.183Z,11.98
2023-03-30T21:07:18.332Z,11.93
2023-03-30T21:09:48.457Z,12.02
2023-03-30T21:12:18.205Z,11.90
2023-03-30T21:14:50.813Z,11.98
2023-03-30T21:17:20.584Z,11.95
2023-03-30T21:19:50.223Z,11.96
2023-03-30T21:22:21.563Z,11.75
2023-03-30T21:24:51.384Z,11.90
2023-03-30T21:27:21.049Z,11.86
2023-03-30T21:29:53.584Z,11.68
2023-03-30T21:32:23.293Z,11.65
2023-03-30T21:34:52.992Z,11.35
2023-03-30T21:37:22.748Z,11.50
2023-03-30T21:39:52.401Z,11.31
2023-03-30T21:42:22.196Z,11.27
2023-03-30T21:44:54.566Z,11.14
2023-03-30T21:47:24.281Z,11.46
2023-03-30T21:49:53.961Z,11.34
2023-03-30T21:52:24.177Z,11.48
2023-03-30T21:54:54.241Z,11.70
2023-03-30T21:57:24.577Z,11.68
2023-03-30T21:59:56.849Z,11.56
2023-03-30T22:02:27.283Z,11.73
2023-03-30T22:04:57.234Z,11.80
2023-03-30T22:07:26.945Z,11.72
2023-03-30T22:09:59.838Z,11.88
2023-03-30T22:12:31.609Z,11.74
2023-03-30T22:15:03.905Z,11.57
2023-03-30T22:17:41.902Z,11.71
2023-03-30T22:20:13.180Z,11.83
2023-03-30T22:22:43.064Z,11.74
2023-03-30T22:25:13.177Z,11.86
2023-03-30T22:27:44.799Z,12.03
2023-03-30T22:30:17.998Z,12.07
2023-03-30T22:32:47.751Z,11.97
2023-03-30T22:35:17.472Z,11.97
2023-03-30T22:37:47.392Z,12.03
2023-03-30T22:40:17.307Z,12.12
2023-03-30T22:42:47.075Z,12.11
2023-03-30T22:45:19.629Z,11.97
2023-03-30T22:47:49.358Z,11.93
2023-03-30T22:50:20.558Z,11.84
2023-03-30T22:52:50.346Z,11.95
2023-03-30T22:55:20.763Z,11.85
2023-03-30T22:57:50.723Z,11.80
2023-03-30T23:00:23.766Z,11.89
2023-03-30T23:02:53.955Z,11.91
2023-03-30T23:05:25.730Z,11.97
2023-03-30T23:07:55.385Z,12.11
2023-03-30T23:10:26.533Z,12.14
2023-03-30T23:12:57.980Z,12.07
2023-03-30T23:15:30.354Z,12.17
2023-03-30T23:18:00.015Z,12.18
2023-03-30T23:20:29.931Z,12.24
2023-03-30T23:22:59.600Z,12.18
2023-03-30T23:25:29.309Z,12.25
2023-03-30T23:27:59.208Z,12.23
2023-03-30T23:30:31.534Z,12.18
2023-03-30T23:33:01.989Z,11.94
2023-03-30T23:35:31.778Z,11.82
2023-03-30T23:38:03.367Z,11.74
2023-03-30T23:40:33.157Z,11.82
2023-03-30T23:43:02.861Z,11.89
2023-03-30T23:45:35.312Z,11.90
2023-03-30T23:48:05.118Z,11.76
2023-03-30T23:50:35.282Z,11.60
2023-03-30T23:53:04.983Z,11.71
2023-03-30T23:55:34.726Z,11.75
2023-03-30T23:58:04.384Z,11.76
